createdAt,value
2017-10-09T00:02:54.438Z,99.90
2017-10-09T00:05:59.210Z,99.90
2017-10-09T00:09:04.874Z,99.90
2017-10-09T00:12:10.534Z,99.90
2017-10-09T00:15:17.123Z,99.90
2017-10-09T00:18:22.630Z,99.90
2017-10-09T00:21:30.213Z,99.90
2017-10-09T00:24:36.808Z,99.90
2017-10-09T00:27:42.754Z,99.90
2017-10-09T00:30:48.331Z,99.90
2017-10-09T00:33:53.166Z,99.90
2017-10-09T00:36:58.845Z,99.90
2017-10-09T00:40:03.601Z,99.90
2017-10-09T00:43:09.218Z,99.90
2017-10-09T00:46:14.618Z,99.90
2017-10-09T00:49:22.285Z,99.90
2017-10-09T00:52:29.886Z,99.90
2017-10-09T00:55:35.629Z,99.90
2017-10-09T00:58:40.911Z,99.90
2017-10-09T01:01:45.924Z,99.90
2017-10-09T01:04:56.922Z,99.90
2017-10-09T01:08:01.614Z,99.90
2017-10-09T01:11:07.466Z,99.90
2017-10-09T01:14:13.024Z,99.90
2017-10-09T01:17:18.615Z,99.90
2017-10-09T01:20:24.327Z,99.90
2017-10-09T01:23:29.854Z,99.90
2017-10-09T01:26:35.522Z,99.90
2017-10-09T01:29:41.092Z,99.90
2017-10-09T01:32:46.510Z,99.90
2017-10-09T01:35:52.063Z,99.90
2017-10-09T01:38:57.738Z,99.90
2017-10-09T01:42:02.695Z,99.90
2017-10-09T01:45:08.420Z,99.90
2017-10-09T01:48:14.039Z,99.90
2017-10-09T01:51:19.562Z,99.90
2017-10-09T01:54:25.514Z,99.90
2017-10-09T01:57:31.153Z,99.90
2017-10-09T02:00:36.301Z,99.90
2017-10-09T02:03:40.948Z,99.90
2017-10-09T02:06:45.807Z,99.90
2017-10-09T02:09:50.745Z,99.90
2017-10-09T02:12:56.338Z,99.90
2017-10-09T02:16:01.165Z,99.90
2017-10-09T02:19:06.798Z,99.90
2017-10-09T02:22:11.572Z,99.90
2017-10-09T02:25:16.305Z,99.90
2017-10-09T02:28:21.148Z,99.90
2017-10-09T02:31:26.086Z,99.90
2017-10-09T02:34:32.006Z,99.90
2017-10-09T02:37:36.787Z,99.90
2017-10-09T02:40:54.402Z,99.90
2017-10-09T02:43:59.549Z,99.90
2017-10-09T02:47:04.579Z,99.90
2017-10-09T02:50:09.734Z,99.90
2017-10-09T02:53:14.414Z,99.90
2017-10-09T02:56:19.118Z,99.90
2017-10-09T02:59:23.897Z,99.90
2017-10-09T03:02:28.858Z,99.90
2017-10-09T03:05:34.091Z,99.90
2017-10-09T03:08:39.874Z,99.90
2017-10-09T03:11:46.217Z,99.90
2017-10-09T03:14:51.466Z,99.90
2017-10-09T03:17:56.727Z,99.90
2017-10-09T03:21:02.435Z,99.90
2017-10-09T03:28:09.900Z,99.90
2017-10-09T03:31:15.683Z,99.90
2017-10-09T03:34:20.377Z,99.90
2017-10-09T03:37:26.600Z,99.90
2017-10-09T03:40:32.511Z,99.90
2017-10-09T03:43:37.161Z,99.90
2017-10-09T03:46:41.931Z,99.90
2017-10-09T03:49:46.850Z,99.90
2017-10-09T03:52:51.493Z,99.90
2017-10-09T03:55:57.084Z,99.90
2017-10-09T03:59:01.810Z,99.90
2017-10-09T04:02:06.488Z,99.90
2017-10-09T04:05:11.586Z,99.90
2017-10-09T04:08:17.191Z,99.90
2017-10-09T04:11:22.011Z,99.90
2017-10-09T04:14:26.726Z,99.90
2017-10-09T04:17:31.319Z,99.90
2017-10-09T04:20:36.215Z,99.90
2017-10-09T04:23:40.850Z,99.90
2017-10-09T04:26:46.042Z,99.90
2017-10-09T04:29:51.831Z,99.90
2017-10-09T04:32:56.664Z,99.90
2017-10-09T04:36:02.539Z,99.90
2017-10-09T04:39:07.653Z,99.90
2017-10-09T04:42:12.638Z,99.90
2017-10-09T04:45:17.330Z,99.90
2017-10-09T04:48:22.043Z,99.90
2017-10-09T04:51:26.722Z,99.90
2017-10-09T04:54:31.494Z,99.90
2017-10-09T04:57:37.553Z,99.90
2017-10-09T05:00:43.342Z,99.90
2017-10-09T05:03:48.131Z,99.90
2017-10-09T05:06:52.930Z,99.90
2017-10-09T05:09:57.722Z,99.90
2017-10-09T05:13:02.698Z,99.90
2017-10-09T05:16:07.622Z,99.90
2017-10-09T05:19:12.775Z,99.90
2017-10-09T05:22:20.834Z,99.90
2017-10-09T05:25:27.624Z,99.90
2017-10-09T05:28:32.390Z,99.90
2017-10-09T05:31:37.208Z,99.90
2017-10-09T05:34:42.837Z,99.90
2017-10-09T05:37:47.723Z,99.90
2017-10-09T05:40:54.511Z,99.90
2017-10-09T05:43:59.118Z,99.90
2017-10-09T05:47:03.865Z,99.90
2017-10-09T05:50:08.523Z,99.90
2017-10-09T05:53:14.398Z,99.90
2017-10-09T05:56:19.074Z,99.90
2017-10-09T05:59:23.923Z,99.90
2017-10-09T06:02:28.822Z,99.90
2017-10-09T06:05:33.514Z,99.90
2017-10-09T06:08:38.336Z,99.90
2017-10-09T06:11:43.409Z,99.90
2017-10-09T06:14:48.252Z,99.90
2017-10-09T06:17:53.789Z,99.90
2017-10-09T06:20:59.011Z,99.90
2017-10-09T06:24:06.599Z,99.90
2017-10-09T06:27:12.029Z,99.90
2017-10-09T06:30:16.968Z,99.90
2017-10-09T06:33:21.657Z,99.90
2017-10-09T06:36:27.163Z,99.90
2017-10-09T06:39:38.954Z,99.90
2017-10-09T06:42:43.784Z,99.90
2017-10-09T06:45:50.629Z,99.90
2017-10-09T06:48:55.557Z,99.90
2017-10-09T06:52:00.411Z,99.90
2017-10-09T06:55:06.137Z,99.90
2017-10-09T06:58:10.956Z,99.90
2017-10-09T07:01:20.926Z,99.90
2017-10-09T07:04:26.587Z,99.90
2017-10-09T07:07:40.215Z,99.90
2017-10-09T07:10:45.873Z,99.90
2017-10-09T07:13:57.512Z,99.90
2017-10-09T07:17:03.276Z,99.90
2017-10-09T07:20:09.284Z,99.90
2017-10-09T07:23:20.484Z,99.90
2017-10-09T07:26:28.340Z,99.90
2017-10-09T07:29:33.155Z,99.90
2017-10-09T07:32:37.980Z,99.90
2017-10-09T07:35:42.710Z,99.90
2017-10-09T07:38:48.978Z,99.90
2017-10-09T07:41:53.891Z,99.90
2017-10-09T07:44:59.882Z,99.90
2017-10-09T07:48:04.677Z,99.90
2017-10-09T07:51:10.206Z,99.90
2017-10-09T07:54:15.083Z,99.90
2017-10-09T07:57:20.886Z,99.90
2017-10-09T08:00:25.467Z,99.90
2017-10-09T08:03:30.271Z,99.90
2017-10-09T08:06:35.354Z,99.90
2017-10-09T08:09:40.876Z,99.90
2017-10-09T08:12:52.528Z,99.90
2017-10-09T08:15:58.429Z,99.90
2017-10-09T08:19:04.373Z,99.90
2017-10-09T08:22:09.862Z,99.90
2017-10-09T08:25:15.411Z,99.90
2017-10-09T08:28:21.614Z,99.90
2017-10-09T08:31:29.097Z,99.90
2017-10-09T08:34:36.258Z,99.90
2017-10-09T08:37:42.080Z,99.90
2017-10-09T08:40:46.762Z,99.90
2017-10-09T08:43:51.681Z,99.90
2017-10-09T08:46:58.287Z,98.80
2017-10-09T08:50:08.838Z,99.90
2017-10-09T08:53:14.624Z,99.90
2017-10-09T08:56:19.466Z,97.60
2017-10-09T08:59:26.717Z,98.20
2017-10-09T09:02:31.595Z,98.50
2017-10-09T09:05:37.231Z,98.60
2017-10-09T09:08:42.895Z,99.90
2017-10-09T09:11:50.994Z,99.40
2017-10-09T09:14:57.568Z,98.00
2017-10-09T09:18:02.459Z,97.20
2017-10-09T09:21:07.074Z,98.20
2017-10-09T09:24:12.706Z,97.60
2017-10-09T09:27:18.625Z,97.40
2017-10-09T09:30:24.409Z,96.90
2017-10-09T09:33:29.151Z,96.90
2017-10-09T09:36:33.878Z,95.60
2017-10-09T09:39:38.744Z,95.90
2017-10-09T09:42:43.611Z,96.40
2017-10-09T09:45:48.606Z,97.20
2017-10-09T09:48:54.513Z,97.00
2017-10-09T09:52:00.527Z,96.50
2017-10-09T09:55:05.139Z,96.80
2017-10-09T09:58:09.899Z,96.20
2017-10-09T10:01:14.860Z,95.90
2017-10-09T10:04:26.203Z,94.00
2017-10-09T10:07:32.182Z,94.60
2017-10-09T10:10:43.206Z,95.20
2017-10-09T10:13:47.998Z,95.90
2017-10-09T10:16:53.690Z,93.80
2017-10-09T10:19:58.574Z,93.90
2017-10-09T10:23:03.425Z,94.20
2017-10-09T10:26:09.190Z,94.70
2017-10-09T10:29:14.067Z,94.40
2017-10-09T10:32:19.987Z,95.60
2017-10-09T10:35:25.054Z,96.10
2017-10-09T10:38:30.771Z,95.60
2017-10-09T10:41:35.503Z,95.60
2017-10-09T10:44:40.223Z,95.50
2017-10-09T10:47:44.887Z,94.40
2017-10-09T10:50:50.755Z,93.80
2017-10-09T10:53:56.658Z,92.20
2017-10-09T10:57:01.356Z,91.90
2017-10-09T11:00:06.963Z,93.10
2017-10-09T11:03:11.905Z,93.10
2017-10-09T11:06:16.794Z,91.30
2017-10-09T11:09:21.807Z,92.40
2017-10-09T11:12:26.471Z,92.60
2017-10-09T11:15:31.455Z,92.20
2017-10-09T11:18:36.450Z,92.00
2017-10-09T11:21:41.555Z,90.10
2017-10-09T11:24:46.383Z,91.30
2017-10-09T11:27:52.633Z,93.10
2017-10-09T11:30:57.706Z,92.90
2017-10-09T11:34:02.490Z,93.70
2017-10-09T11:37:08.510Z,93.60
2017-10-09T11:40:13.443Z,93.90
2017-10-09T11:43:18.455Z,93.40
2017-10-09T11:46:24.110Z,93.60
2017-10-09T11:49:29.243Z,93.00
2017-10-09T11:52:34.162Z,93.50
2017-10-09T11:55:40.076Z,93.30
2017-10-09T11:58:44.719Z,92.30
2017-10-09T12:01:50.267Z,93.30
2017-10-09T12:04:54.799Z,94.00
2017-10-09T12:08:00.614Z,92.50
2017-10-09T12:11:05.655Z,92.50
2017-10-09T12:14:15.698Z,93.00
2017-10-09T12:17:21.606Z,91.80
2017-10-09T12:20:27.254Z,91.80
2017-10-09T12:23:33.179Z,91.70
2017-10-09T12:26:39.583Z,90.30
2017-10-09T12:29:44.395Z,90.30
2017-10-09T12:32:49.242Z,91.60
2017-10-09T12:35:55.095Z,92.70
2017-10-09T12:39:00.278Z,92.30
2017-10-09T12:42:05.251Z,91.40
2017-10-09T12:45:09.906Z,91.30
2017-10-09T12:48:14.790Z,90.30
2017-10-09T12:51:19.587Z,91.00
2017-10-09T12:54:24.343Z,90.90
2017-10-09T12:57:29.282Z,90.90
2017-10-09T13:00:34.046Z,91.00
2017-10-09T13:03:39.000Z,90.60
2017-10-09T13:06:43.814Z,89.00
2017-10-09T13:09:49.578Z,90.70
2017-10-09T13:12:54.351Z,87.00
2017-10-09T13:15:59.226Z,85.10
2017-10-09T13:19:04.134Z,83.30
2017-10-09T13:22:09.355Z,88.20
2017-10-09T13:25:14.226Z,87.60
2017-10-09T13:28:18.959Z,84.70
2017-10-09T13:31:23.630Z,88.40
2017-10-09T13:34:30.803Z,88.00
2017-10-09T13:37:36.430Z,89.90
2017-10-09T13:40:48.477Z,89.90
2017-10-09T13:43:54.217Z,90.00
2017-10-09T13:47:00.374Z,90.20
2017-10-09T13:50:05.923Z,88.00
2017-10-09T13:53:10.651Z,88.30
2017-10-09T13:56:16.550Z,90.40
2017-10-09T13:59:22.159Z,90.70
2017-10-09T14:02:27.191Z,90.20
2017-10-09T14:05:32.870Z,90.60
2017-10-09T14:08:38.435Z,90.30
2017-10-09T14:11:43.251Z,90.30
2017-10-09T14:14:48.454Z,91.20
2017-10-09T14:17:53.040Z,91.70
2017-10-09T14:21:03.690Z,91.70
2017-10-09T14:24:08.870Z,92.30
2017-10-09T14:27:14.642Z,92.90
2017-10-09T14:30:20.603Z,92.90
2017-10-09T14:42:42.118Z,92.70
2017-10-09T14:45:48.224Z,93.00
2017-10-09T14:48:53.442Z,93.00
2017-10-09T14:51:58.674Z,92.50
2017-10-09T14:55:03.604Z,92.60
2017-10-09T14:58:09.100Z,91.90
2017-10-09T15:01:14.187Z,92.30
2017-10-09T15:04:20.587Z,92.70
2017-10-09T15:07:25.706Z,91.80
2017-10-09T15:10:31.142Z,92.30
2017-10-09T15:13:37.240Z,92.60
2017-10-09T15:16:42.508Z,92.60
2017-10-09T15:19:47.211Z,92.80
2017-10-09T15:22:54.174Z,93.30
2017-10-09T15:26:00.011Z,93.30
2017-10-09T15:29:04.690Z,93.00
2017-10-09T15:32:10.574Z,93.60
2017-10-09T15:35:15.497Z,93.80
2017-10-09T15:38:20.418Z,93.90
2017-10-09T15:41:29.238Z,94.10
2017-10-09T15:44:34.986Z,94.90
2017-10-09T15:47:43.739Z,95.20
2017-10-09T15:50:48.518Z,94.80
2017-10-09T15:53:54.387Z,95.20
2017-10-09T15:57:00.155Z,95.20
2017-10-09T16:00:04.860Z,95.60
2017-10-09T16:03:09.958Z,96.10
2017-10-09T16:06:14.702Z,96.00
2017-10-09T16:09:22.580Z,96.10
2017-10-09T16:12:33.583Z,96.10
2017-10-09T16:15:39.294Z,96.60
2017-10-09T16:18:45.185Z,97.10
2017-10-09T16:21:50.742Z,96.90
2017-10-09T16:24:55.732Z,97.20
2017-10-09T16:28:00.750Z,97.20
2017-10-09T16:31:06.592Z,97.20
2017-10-09T16:34:11.538Z,97.20
2017-10-09T16:37:18.040Z,97.30
2017-10-09T16:40:23.000Z,97.70
2017-10-09T16:43:27.947Z,97.80
2017-10-09T16:46:33.742Z,98.30
2017-10-09T16:49:40.399Z,98.30
2017-10-09T16:52:45.176Z,98.60
2017-10-09T16:55:50.771Z,98.60
2017-10-09T16:58:55.478Z,99.10
2017-10-09T17:02:00.138Z,98.80
2017-10-09T17:05:05.283Z,98.90
2017-10-09T17:08:10.720Z,98.80
2017-10-09T17:11:16.440Z,98.40
2017-10-09T17:14:21.326Z,98.80
2017-10-09T17:17:26.910Z,98.70
2017-10-09T17:20:32.427Z,98.90
2017-10-09T17:23:37.051Z,98.70
2017-10-09T17:26:42.654Z,98.40
2017-10-09T17:29:47.395Z,98.60
2017-10-09T17:32:52.999Z,99.50
2017-10-09T17:35:57.899Z,99.50
2017-10-09T17:39:02.614Z,99.90
2017-10-09T17:42:08.390Z,99.90
2017-10-09T17:45:13.114Z,99.90
2017-10-09T17:48:18.968Z,99.90
2017-10-09T17:51:26.726Z,99.90
2017-10-09T17:54:31.563Z,99.90
2017-10-09T17:57:36.346Z,99.90
2017-10-09T18:00:42.078Z,99.90
2017-10-09T18:03:47.441Z,99.90
2017-10-09T18:06:53.668Z,99.90
2017-10-09T18:09:59.223Z,99.90
2017-10-09T18:13:04.691Z,99.90
2017-10-09T18:16:09.883Z,99.90
2017-10-09T18:19:15.601Z,99.90
2017-10-09T18:22:21.321Z,99.90
2017-10-09T18:25:26.708Z,99.90
2017-10-09T18:28:31.272Z,99.90
2017-10-09T18:31:35.995Z,99.90
2017-10-09T18:34:42.171Z,99.90
2017-10-09T18:37:47.194Z,99.90
2017-10-09T18:40:53.123Z,99.90
2017-10-09T18:43:58.821Z,99.90
2017-10-09T18:47:03.419Z,99.90
2017-10-09T18:50:10.251Z,99.90
2017-10-09T18:53:15.031Z,99.90
2017-10-09T18:56:19.784Z,99.90
2017-10-09T18:59:24.663Z,99.90
2017-10-09T19:02:29.475Z,99.90
2017-10-09T19:05:34.282Z,99.90
2017-10-09T19:08:39.759Z,99.90
2017-10-09T19:11:45.394Z,99.90
2017-10-09T19:14:50.239Z,99.90
2017-10-09T19:17:56.267Z,99.90
2017-10-09T19:21:02.252Z,99.90
2017-10-09T19:24:06.998Z,99.90
2017-10-09T19:27:11.782Z,99.90
2017-10-09T19:30:16.936Z,99.90
2017-10-09T19:33:22.352Z,99.90
2017-10-09T19:36:27.061Z,99.90
2017-10-09T19:39:31.600Z,99.90
2017-10-09T19:42:36.991Z,99.90
2017-10-09T19:45:42.583Z,99.90
2017-10-09T19:48:48.100Z,99.90
2017-10-09T19:51:52.898Z,99.90
2017-10-09T19:54:58.520Z,99.90
2017-10-09T19:58:03.248Z,99.90
2017-10-09T20:01:08.632Z,99.90
2017-10-09T20:04:13.291Z,99.90
2017-10-09T20:07:18.959Z,99.90
2017-10-09T20:10:24.491Z,99.90
2017-10-09T20:13:29.292Z,99.90
2017-10-09T20:16:34.808Z,99.90
2017-10-09T20:19:42.383Z,99.90
2017-10-09T20:22:46.931Z,99.90
2017-10-09T20:25:52.568Z,99.90
2017-10-09T20:28:57.471Z,99.90
2017-10-09T20:32:03.194Z,99.90
2017-10-09T20:35:08.807Z,99.90
2017-10-09T20:38:14.526Z,99.90
2017-10-09T20:41:20.454Z,99.90
2017-10-09T20:44:25.859Z,99.90
2017-10-09T20:47:31.677Z,99.90
2017-10-09T20:50:37.407Z,99.90
2017-10-09T20:53:43.059Z,99.90
2017-10-09T20:56:48.693Z,99.90
2017-10-09T20:59:53.788Z,99.90
2017-10-09T21:02:58.640Z,99.90
2017-10-09T21:06:03.277Z,99.90
2017-10-09T21:09:09.042Z,99.90
2017-10-09T21:12:13.746Z,99.90
2017-10-09T21:15:19.318Z,99.90
2017-10-09T21:18:24.923Z,99.90
2017-10-09T21:21:30.502Z,99.90
2017-10-09T21:24:35.179Z,99.90
2017-10-09T21:27:39.824Z,99.90
2017-10-09T21:30:44.446Z,99.90
2017-10-09T21:33:50.178Z,99.90
2017-10-09T21:36:54.963Z,99.90
2017-10-09T21:40:00.655Z,99.90
2017-10-09T21:43:05.277Z,99.90
2017-10-09T21:46:11.282Z,99.90
2017-10-09T21:49:16.191Z,99.90
2017-10-09T21:52:21.154Z,99.90
2017-10-09T21:55:26.722Z,99.90
2017-10-09T21:58:32.200Z,99.90
2017-10-09T22:01:37.698Z,99.90
2017-10-09T22:04:42.494Z,99.90
2017-10-09T22:07:48.031Z,99.90
2017-10-09T22:10:52.715Z,99.90
2017-10-09T22:13:59.323Z,99.90
2017-10-09T22:17:05.074Z,99.90
2017-10-09T22:20:10.574Z,99.90
2017-10-09T22:23:15.391Z,99.90
2017-10-09T22:26:20.930Z,99.90
2017-10-09T22:29:26.603Z,99.90
2017-10-09T22:32:32.180Z,99.90
2017-10-09T22:35:37.689Z,99.90
2017-10-09T22:38:43.367Z,99.90
2017-10-09T22:41:50.050Z,99.90
2017-10-09T22:44:55.963Z,99.90
2017-10-09T22:48:00.506Z,99.90
2017-10-09T22:51:05.491Z,99.90
2017-10-09T22:54:10.176Z,99.90
2017-10-09T22:57:14.926Z,99.90
2017-10-09T23:00:19.657Z,99.90
2017-10-09T23:03:24.491Z,99.90
2017-10-09T23:06:30.186Z,99.90
2017-10-09T23:09:35.098Z,99.90
2017-10-09T23:12:39.871Z,99.90
2017-10-09T23:15:45.530Z,99.90
2017-10-09T23:18:51.143Z,99.90
2017-10-09T23:21:55.834Z,99.90
2017-10-09T23:25:01.403Z,99.90
2017-10-09T23:28:07.073Z,99.90
2017-10-09T23:31:11.963Z,99.90
2017-10-09T23:34:17.719Z,99.90
2017-10-09T23:37:23.371Z,99.90
2017-10-09T23:40:28.338Z,99.90
2017-10-09T23:43:34.040Z,99.90
2017-10-09T23:46:38.650Z,99.90
2017-10-09T23:49:44.277Z,99.90
2017-10-09T23:52:50.174Z,99.90
2017-10-09T23:55:54.889Z,99.90
2017-10-09T23:59:00.728Z,99.90
